EZY384J EGGP-EGAE
Flight info
| Callsign | EZY384J |
|---|---|
| Flight time | 0h 40m |
| Altitude | 24000 |
| Route | WAL M146 IPSET P6 BELZU |
| Aircraft | A319/M-SDE2E3FGIJ1RWXYZ/LB1 |
Departure
| Time | 2026-05-04 10:44 |
|---|---|
| Airport | Liverpool John Lennon Airport (EGGP) |
Arrival
| Time | 2026-05-04 11:25 |
|---|---|
| Airport | City of Derry Airport (EGAE) |
| Time | Latitude | Longitude | Altitude | Speed | Heading |
|---|---|---|---|---|---|
| 2026-05-04 09:57 | 53.33674 | -2.85203 | 86 ft | 0 kts | 264° |
| 2026-05-04 10:34 | 53.33674 | -2.85198 | 86 ft | 2 kts | 264° |
| 2026-05-04 10:34 | 53.33675 | -2.85167 | 88 ft | 3 kts | 268° |
| 2026-05-04 10:34 | 53.33677 | -2.85133 | 86 ft | 3 kts | 267° |
| 2026-05-04 10:35 | 53.33677 | -2.85100 | 86 ft | 3 kts | 264° |
| 2026-05-04 10:35 | 53.33681 | -2.85069 | 88 ft | 3 kts | 235° |
| 2026-05-04 10:35 | 53.33687 | -2.85057 | 89 ft | 1 kts | 220° |
| 2026-05-04 10:35 | 53.33673 | -2.85069 | 87 ft | 3 kts | 202° |
| 2026-05-04 10:36 | 53.33654 | -2.85073 | 85 ft | 3 kts | 182° |
| 2026-05-04 10:36 | 53.33636 | -2.85071 | 85 ft | 2 kts | 175° |
| 2026-05-04 10:36 | 53.33634 | -2.85071 | 85 ft | 0 kts | 175° |
| 2026-05-04 10:39 | 53.33514 | -2.85332 | 84 ft | 8 kts | 267° |
| 2026-05-04 10:39 | 53.33510 | -2.85433 | 89 ft | 8 kts | 264° |
| 2026-05-04 10:39 | 53.33505 | -2.85528 | 84 ft | 9 kts | 265° |
| 2026-05-04 10:40 | 53.33498 | -2.85661 | 86 ft | 10 kts | 265° |
| 2026-05-04 10:40 | 53.33492 | -2.85786 | 86 ft | 11 kts | 265° |
| 2026-05-04 10:40 | 53.33485 | -2.85923 | 84 ft | 12 kts | 266° |
| 2026-05-04 10:40 | 53.33479 | -2.86067 | 84 ft | 13 kts | 265° |
| 2026-05-04 10:41 | 53.33472 | -2.86219 | 84 ft | 13 kts | 265° |
| 2026-05-04 10:41 | 53.33464 | -2.86376 | 84 ft | 12 kts | 266° |
| 2026-05-04 10:41 | 53.33458 | -2.86523 | 81 ft | 15 kts | 265° |
| 2026-05-04 10:41 | 53.33431 | -2.86692 | 74 ft | 13 kts | 224° |
| 2026-05-04 10:42 | 53.33401 | -2.86724 | 73 ft | 2 kts | 196° |
| 2026-05-04 10:42 | 53.33364 | -2.86725 | 71 ft | 11 kts | 170° |
| 2026-05-04 10:42 | 53.33299 | -2.86657 | 77 ft | 11 kts | 127° |
| 2026-05-04 10:42 | 53.33290 | -2.86552 | 76 ft | 0 kts | 85° |
| 2026-05-04 10:43 | 53.33290 | -2.86550 | 73 ft | 1 kts | 85° |
| 2026-05-04 10:44 | 53.33550 | -2.81620 | 1135 ft | 157 kts | 83° |
| 2026-05-04 10:45 | 53.33689 | -2.79794 | 1790 ft | 164 kts | 77° |
| 2026-05-04 10:45 | 53.34153 | -2.77928 | 2188 ft | 186 kts | 56° |
| 2026-05-04 10:45 | 53.35144 | -2.76329 | 2576 ft | 212 kts | 31° |
| 2026-05-04 10:45 | 53.36639 | -2.75518 | 3093 ft | 239 kts | 4° |
| 2026-05-04 10:46 | 53.38299 | -2.76077 | 3739 ft | 259 kts | 335° |
| 2026-05-04 10:46 | 53.39631 | -2.78130 | 4288 ft | 268 kts | 299° |
| 2026-05-04 10:46 | 53.40087 | -2.81156 | 5354 ft | 274 kts | 268° |
| 2026-05-04 10:46 | 53.39609 | -2.84242 | 6442 ft | 276 kts | 249° |
| 2026-05-04 10:47 | 53.38972 | -2.87286 | 7492 ft | 278 kts | 253° |
| 2026-05-04 10:47 | 53.38524 | -2.90452 | 8526 ft | 281 kts | 262° |
| 2026-05-04 10:47 | 53.38354 | -2.93736 | 9540 ft | 285 kts | 270° |
| 2026-05-04 10:47 | 53.38453 | -2.97082 | 10364 ft | 295 kts | 274° |
| 2026-05-04 10:49 | 53.42926 | -3.22087 | 15437 ft | 348 kts | 320° |
| 2026-05-04 10:49 | 53.44835 | -3.24621 | 16179 ft | 352 kts | 323° |
| 2026-05-04 10:50 | 53.46781 | -3.27152 | 16914 ft | 356 kts | 322° |
| 2026-05-04 10:51 | 53.59323 | -3.48803 | 21551 ft | 385 kts | 306° |
| 2026-05-04 10:52 | 53.60864 | -3.52520 | 22187 ft | 389 kts | 307° |
| 2026-05-04 10:52 | 53.62431 | -3.56259 | 22822 ft | 393 kts | 308° |
| 2026-05-04 10:52 | 53.63999 | -3.59978 | 23441 ft | 397 kts | 308° |
| 2026-05-04 10:54 | 53.74771 | -3.85715 | 24087 ft | 370 kts | 308° |
| 2026-05-04 10:54 | 53.76248 | -3.89268 | 24086 ft | 370 kts | 308° |
| 2026-05-04 10:56 | 53.86540 | -4.14227 | 24088 ft | 369 kts | 308° |
| 2026-05-04 10:56 | 53.88007 | -4.17798 | 24086 ft | 369 kts | 308° |
| 2026-05-04 10:56 | 53.89475 | -4.21372 | 24080 ft | 369 kts | 308° |
| 2026-05-04 10:57 | 53.90940 | -4.24948 | 24082 ft | 369 kts | 308° |
| 2026-05-04 10:57 | 53.92403 | -4.28536 | 24075 ft | 369 kts | 308° |
| 2026-05-04 10:57 | 53.93858 | -4.32114 | 24089 ft | 368 kts | 308° |
| 2026-05-04 10:57 | 53.95310 | -4.35692 | 24095 ft | 368 kts | 308° |
| 2026-05-04 10:58 | 53.96759 | -4.39262 | 24098 ft | 367 kts | 308° |
| 2026-05-04 10:58 | 53.98207 | -4.42833 | 24098 ft | 367 kts | 308° |
| 2026-05-04 10:58 | 53.99653 | -4.46401 | 24097 ft | 366 kts | 308° |
| 2026-05-04 10:58 | 54.01099 | -4.49971 | 24099 ft | 366 kts | 308° |
| 2026-05-04 10:59 | 54.02667 | -4.53343 | 24098 ft | 363 kts | 316° |
| 2026-05-04 10:59 | 54.04384 | -4.56495 | 24101 ft | 363 kts | 316° |
| 2026-05-04 10:59 | 54.06095 | -4.59657 | 24100 ft | 363 kts | 315° |
| 2026-05-04 10:59 | 54.07800 | -4.62825 | 24097 ft | 363 kts | 315° |
| 2026-05-04 11:00 | 54.09502 | -4.65996 | 24093 ft | 363 kts | 315° |
| 2026-05-04 11:01 | 54.21398 | -4.88234 | 24115 ft | 362 kts | 315° |
| 2026-05-04 11:02 | 54.23088 | -4.91415 | 24113 ft | 361 kts | 315° |
| 2026-05-04 11:02 | 54.24776 | -4.94594 | 24114 ft | 361 kts | 315° |
| 2026-05-04 11:05 | 54.47915 | -5.38396 | 21939 ft | 336 kts | 316° |
| 2026-05-04 11:06 | 54.49534 | -5.41268 | 21539 ft | 333 kts | 316° |
| 2026-05-04 11:06 | 54.51070 | -5.44242 | 21130 ft | 333 kts | 308° |
| 2026-05-04 11:06 | 54.52235 | -5.47683 | 20719 ft | 334 kts | 296° |
| 2026-05-04 11:06 | 54.53002 | -5.51453 | 20313 ft | 334 kts | 290° |
| 2026-05-04 11:08 | 54.57903 | -5.77858 | 17470 ft | 326 kts | 289° |
| 2026-05-04 11:10 | 54.62577 | -6.03425 | 14885 ft | 313 kts | 288° |
| 2026-05-04 11:12 | 54.68558 | -6.26572 | 12328 ft | 299 kts | 320° |
| 2026-05-04 11:12 | 54.70142 | -6.28868 | 11971 ft | 296 kts | 320° |
| 2026-05-04 11:12 | 54.71711 | -6.31155 | 11608 ft | 294 kts | 319° |
| 2026-05-04 11:12 | 54.73263 | -6.33426 | 11246 ft | 291 kts | 319° |
| 2026-05-04 11:13 | 54.74803 | -6.35687 | 10878 ft | 289 kts | 319° |
| 2026-05-04 11:13 | 54.76331 | -6.37932 | 10512 ft | 287 kts | 319° |
| 2026-05-04 11:13 | 54.77850 | -6.40166 | 10145 ft | 286 kts | 319° |
| 2026-05-04 11:13 | 54.79353 | -6.42378 | 9800 ft | 282 kts | 319° |
| 2026-05-04 11:14 | 54.80847 | -6.44579 | 9371 ft | 281 kts | 319° |
| 2026-05-04 11:14 | 54.82317 | -6.46746 | 9034 ft | 276 kts | 319° |
| 2026-05-04 11:14 | 54.83776 | -6.48900 | 8621 ft | 274 kts | 319° |
| 2026-05-04 11:16 | 54.93550 | -6.63360 | 5886 ft | 255 kts | 318° |
| 2026-05-04 11:16 | 54.94911 | -6.65380 | 5494 ft | 252 kts | 318° |
| 2026-05-04 11:16 | 54.96223 | -6.67279 | 5241 ft | 244 kts | 323° |
| 2026-05-04 11:17 | 54.97848 | -6.68483 | 5068 ft | 255 kts | 342° |
| 2026-05-04 11:17 | 54.99484 | -6.69247 | 4882 ft | 238 kts | 343° |
| 2026-05-04 11:19 | 55.09245 | -6.74704 | 2511 ft | 202 kts | 311° |
| 2026-05-04 11:19 | 55.10021 | -6.76750 | 2514 ft | 204 kts | 293° |
| 2026-05-04 11:19 | 55.10364 | -6.79107 | 2513 ft | 201 kts | 275° |
| 2026-05-04 11:19 | 55.10247 | -6.81449 | 2501 ft | 189 kts | 257° |
| 2026-05-04 11:20 | 55.09875 | -6.83619 | 2507 ft | 185 kts | 256° |
| 2026-05-04 11:20 | 55.09513 | -6.85754 | 2503 ft | 183 kts | 255° |
| 2026-05-04 11:20 | 55.09148 | -6.87896 | 2515 ft | 183 kts | 256° |
| 2026-05-04 11:20 | 55.08788 | -6.89997 | 2548 ft | 174 kts | 256° |
| 2026-05-04 11:22 | 55.06740 | -7.01907 | 1583 ft | 129 kts | 257° |
| 2026-05-04 11:22 | 55.06485 | -7.03393 | 1412 ft | 127 kts | 257° |
| 2026-05-04 11:23 | 55.06230 | -7.04870 | 1239 ft | 127 kts | 257° |
| 2026-05-04 11:23 | 55.05977 | -7.06334 | 1055 ft | 125 kts | 258° |
| 2026-05-04 11:24 | 55.04479 | -7.14974 | 57 ft | 124 kts | 255° |
| 2026-05-04 11:25 | 55.04254 | -7.16281 | 31 ft | 93 kts | 252° |
| 2026-05-04 11:25 | 55.04139 | -7.16931 | 34 ft | 40 kts | 253° |
| 2026-05-04 11:25 | 55.04084 | -7.17250 | 33 ft | 42 kts | 253° |
| 2026-05-04 11:26 | 55.04019 | -7.17632 | 29 ft | 6 kts | 49° |
| 2026-05-04 11:27 | 55.04249 | -7.16310 | 31 ft | 17 kts | 73° |
| 2026-05-04 11:28 | 55.04278 | -7.16145 | 30 ft | 11 kts | 72° |
| 2026-05-04 11:28 | 55.04295 | -7.16009 | 31 ft | 11 kts | 91° |
| 2026-05-04 11:28 | 55.04240 | -7.15935 | 31 ft | 11 kts | 165° |
| 2026-05-04 11:28 | 55.04168 | -7.15905 | 30 ft | 10 kts | 167° |
| 2026-05-04 11:29 | 55.04104 | -7.15879 | 31 ft | 9 kts | 166° |
| 2026-05-04 11:29 | 55.04071 | -7.15799 | 31 ft | 8 kts | 87° |
| 2026-05-04 11:29 | 55.04080 | -7.15720 | 31 ft | 5 kts | 74° |
| 2026-05-04 11:29 | 55.04088 | -7.15658 | 30 ft | 5 kts | 81° |
| 2026-05-04 11:31 | 55.04028 | -7.15613 | 30 ft | 0 kts | 167° |
| 2026-05-04 11:33 | 55.04027 | -7.15613 | 30 ft | 0 kts | 167° |